Time;durP1;ratioP1;P1;durP2;ratioP2;P2;SDS_P1;SDS_P2;PMS_P1;PMS_P2;Temp;Humidity;BMP_temperature;BMP_pressure;BME280_temperature;BME280_humidity;BME280_pressure;Samples;Min_cycle;Max_cycle;Signal;HPM_P1;HPM_P2
2021/07/21 00:00:13;;;;;;;7.03;4.33;;;;;;;17.46;60.46;100246.05;153917;1101;103557;-76
2021/07/21 00:03:18;;;;;;;;;;;;;;;17.45;60.58;100245.19;154026;1093;103288;-75
2021/07/21 00:06:23;;;;;;;8.80;4.87;;;;;;;17.39;60.54;100240.59;153943;1101;103278;-75
2021/07/21 00:09:28;;;;;;;5.80;4.45;;;;;;;17.31;60.75;100242.63;153958;1101;103133;-74
2021/07/21 00:16:11;;;;;;;7.57;3.90;;;;;;;17.22;60.85;100239.23;153927;1101;103221;-75
2021/07/21 00:22:37;;;;;;;7.00;4.47;;;;;;;17.04;61.00;100243.27;153952;1101;103173;-74
2021/07/21 00:25:42;;;;;;;9.20;4.50;;;;;;;17.02;61.38;100247.19;153972;1101;103223;-73
2021/07/21 00:28:47;;;;;;;6.15;4.20;;;;;;;16.96;61.20;100246.11;153968;1101;103147;-76
2021/07/21 00:31:52;;;;;;;8.10;4.40;;;;;;;16.94;61.13;100252.73;153942;1094;103188;-78
2021/07/21 00:34:57;;;;;;;5.90;4.60;;;;;;;16.90;61.37;100252.28;153980;1101;103122;-76
2021/07/21 00:38:02;;;;;;;6.03;4.68;;;;;;;16.83;61.69;100256.78;153956;1093;103139;-76
2021/07/21 00:41:07;;;;;;;7.40;4.73;;;;;;;16.76;61.55;100253.97;154060;1101;103158;-76
2021/07/21 00:44:13;;;;;;;7.97;4.77;;;;;;;16.72;61.72;100254.56;153935;1094;103221;-75
2021/07/21 00:47:18;;;;;;;6.30;4.67;;;;;;;16.67;62.24;100264.06;153934;1101;103480;-75
2021/07/21 00:50:24;;;;;;;6.57;4.10;;;;;;;16.57;62.65;100262.70;153979;1093;103129;-76
2021/07/21 00:53:31;;;;;;;4.80;3.73;;;;;;;16.53;62.15;100266.81;153974;1093;103476;-76
2021/07/21 00:56:36;;;;;;;7.10;4.60;;;;;;;16.52;62.43;100265.16;153998;1093;103186;-76
2021/07/21 00:59:43;;;;;;;6.73;4.17;;;;;;;16.46;62.65;100270.28;153966;1101;103221;-76
2021/07/21 01:02:49;;;;;;;6.00;4.70;;;;;;;16.44;62.69;100275.02;154004;1094;103275;-75
2021/07/21 01:05:55;;;;;;;6.60;4.70;;;;;;;16.39;63.73;100276.63;153992;1093;103107;-77
2021/07/21 01:09:01;;;;;;;6.78;4.60;;;;;;;16.34;63.11;100285.28;153998;1093;103279;-76
2021/07/21 01:12:30;;;;;;;5.63;4.20;;;;;;;16.28;63.04;100281.48;153977;1093;103166;-74
2021/07/21 01:15:44;;;;;;;6.67;4.90;;;;;;;16.24;63.08;100282.04;153951;1094;103154;-74
2021/07/21 01:18:57;;;;;;;9.90;4.70;;;;;;;16.22;63.19;100278.70;153922;1101;103198;-73
2021/07/21 01:22:25;;;;;;;8.83;4.30;;;;;;;16.22;63.59;100273.31;154046;1101;103203;-77
2021/07/21 01:25:41;;;;;;;5.47;4.17;;;;;;;16.23;63.98;100283.08;154004;1093;103133;-75
2021/07/21 01:28:51;;;;;;;7.85;4.75;;;;;;;16.25;64.13;100276.47;154030;1093;103214;-75
2021/07/21 01:31:59;;;;;;;7.40;4.70;;;;;;;16.27;64.00;100284.36;153987;1093;103192;-74
2021/07/21 01:35:12;;;;;;;5.10;4.60;;;;;;;16.21;63.81;100280.57;153970;1101;103219;-77
2021/07/21 01:38:20;;;;;;;7.08;4.80;;;;;;;16.20;63.83;100280.75;153952;1101;103200;-75
2021/07/21 01:41:29;;;;;;;5.50;4.60;;;;;;;16.20;63.85;100288.83;153964;1093;103195;-75
2021/07/21 01:44:41;;;;;;;7.00;4.90;;;;;;;16.20;64.82;100288.83;154049;1093;103200;-77
2021/07/21 01:47:47;;;;;;;7.53;4.50;;;;;;;16.13;64.09;100294.15;154066;1101;103104;-75
2021/07/21 01:50:58;;;;;;;8.30;4.97;;;;;;;16.15;64.71;100286.72;154044;1093;103201;-78
2021/07/21 01:54:09;;;;;;;7.28;4.30;;;;;;;16.13;64.65;100283.38;154034;1101;103213;-78
2021/07/21 01:57:16;;;;;;;6.15;4.95;;;;;;;16.16;64.70;100282.98;154082;1093;103260;-77
2021/07/21 02:00:31;;;;;;;7.88;5.28;;;;;;;16.15;65.17;100280.47;153986;1093;103317;-75
2021/07/21 02:03:40;;;;;;;6.20;4.83;;;;;;;16.09;64.75;100282.09;153976;1101;103214;-76
2021/07/21 02:06:47;;;;;;;9.50;5.43;;;;;;;16.03;65.99;100283.68;153934;1101;103131;-79
2021/07/21 02:09:53;;;;;;;5.53;4.38;;;;;;;15.97;65.33;100279.02;154080;1093;103243;-79
2021/07/21 02:13:19;;;;;;;7.05;4.33;;;;;;;16.05;64.89;100281.63;153991;1094;103240;-79
2021/07/21 02:16:31;;;;;;;6.18;4.50;;;;;;;16.10;65.27;100278.36;154059;1093;103144;-78
2021/07/21 02:19:37;;;;;;;5.95;4.70;;;;;;;16.18;64.89;100285.49;154042;1101;103554;-73
2021/07/21 02:22:55;;;;;;;7.43;4.87;;;;;;;16.17;65.43;100286.53;153936;1101;103234;-74
2021/07/21 02:26:20;;;;;;;6.93;5.30;;;;;;;16.08;66.04;100289.31;153968;1101;103203;-75
2021/07/21 02:29:26;;;;;;;8.23;4.83;;;;;;;15.99;66.02;100286.91;153960;1094;103266;-74
2021/07/21 02:32:42;;;;;;;6.38;4.70;;;;;;;15.89;65.99;100297.97;153969;1093;103106;-76
2021/07/21 02:35:47;;;;;;;7.70;4.75;;;;;;;15.83;65.97;100287.96;153945;1094;103132;-78
2021/07/21 02:38:53;;;;;;;6.43;4.30;;;;;;;15.87;66.36;100290.08;153967;1101;103243;-77
2021/07/21 02:41:59;;;;;;;8.60;4.63;;;;;;;15.92;66.05;100296.75;154011;1094;103154;-78
2021/07/21 02:45:16;;;;;;;7.88;4.78;;;;;;;15.89;66.49;100306.87;153931;1093;103281;-81
2021/07/21 02:48:23;;;;;;;7.60;5.50;;;;;;;15.81;66.72;100304.28;153995;1094;103124;-81
2021/07/21 02:51:36;;;;;;;7.17;5.00;;;;;;;15.77;66.79;100304.85;154058;1101;103122;-75
2021/07/21 02:54:49;;;;;;;7.35;5.58;;;;;;;15.68;67.58;100312.13;153943;1101;103196;-75
2021/07/21 02:57:59;;;;;;;7.05;4.73;;;;;;;15.59;66.73;100308.72;154029;1093;103146;-80
2021/07/21 03:01:22;;;;;;;7.30;5.17;;;;;;;15.67;67.17;100319.38;154228;1090;103281;-77
2021/07/21 03:04:29;;;;;;;8.50;4.70;;;;;;;15.66;66.80;100325.77;154032;1096;103147;-80
2021/07/21 03:07:46;;;;;;;9.03;5.00;;;;;;;15.68;67.25;100318.38;153980;1095;103133;-79
2021/07/21 03:10:56;;;;;;;6.53;5.00;;;;;;;15.68;67.64;100328.27;154258;1098;103176;-77
2021/07/21 03:14:04;;;;;;;8.97;5.70;;;;;;;15.64;67.64;100332.36;155885;1098;103164;-77
2021/07/21 03:17:19;;;;;;;6.83;5.20;;;;;;;15.55;67.81;100338.83;154279;1098;103227;-76
2021/07/21 03:20:31;;;;;;;6.40;4.83;;;;;;;15.59;67.75;100340.98;155664;1098;103435;-77
2021/07/21 03:23:47;;;;;;;10.75;5.20;;;;;;;15.65;68.96;100337.55;154646;1093;103096;-78
2021/07/21 03:27:28;;;;;;;8.63;5.53;;;;;;;15.62;68.76;100345.98;153912;1097;103538;-78
2021/07/21 03:31:00;;;;;;;9.65;6.10;;;;;;;15.68;69.03;100353.34;153965;1093;103258;-78
2021/07/21 03:34:10;;;;;;;8.07;5.33;;;;;;;15.72;68.33;100353.78;154079;1093;103167;-77
2021/07/21 03:37:22;;;;;;;8.20;5.10;;;;;;;15.80;68.35;100353.75;154341;1093;103124;-78
2021/07/21 03:40:42;;;;;;;6.77;4.73;;;;;;;15.89;70.42;100367.93;154461;1093;103197;-78
2021/07/21 03:43:57;;;;;;;7.10;5.40;;;;;;;15.85;70.44;100356.70;154505;1093;103143;-77
2021/07/21 03:47:02;;;;;;;7.70;5.50;;;;;;;15.85;69.29;100353.19;154321;1093;103316;-78
2021/07/21 03:50:10;;;;;;;7.33;5.67;;;;;;;15.95;70.77;100367.19;154451;1098;103264;-77
2021/07/21 03:53:19;;;;;;;7.90;5.40;;;;;;;15.91;70.44;100376.66;154352;1093;103102;-78
2021/07/21 03:56:25;;;;;;;9.33;5.50;;;;;;;15.94;69.42;100370.09;154313;1098;103519;-78
2021/07/21 03:59:38;;;;;;;8.07;5.13;;;;;;;16.14;70.27;100381.95;154338;1093;103490;-78
2021/07/21 04:02:46;;;;;;;7.13;5.03;;;;;;;16.25;70.76;100384.17;154452;1094;103237;-77
2021/07/21 04:05:53;;;;;;;6.80;5.30;;;;;;;16.27;69.59;100386.68;154253;1094;103549;-79
2021/07/21 04:09:04;;;;;;;6.60;5.13;;;;;;;16.34;70.16;100392.14;154659;1098;103098;-77
2021/07/21 04:12:11;;;;;;;7.80;5.75;;;;;;;16.26;70.63;100395.77;154440;1093;103243;-77
2021/07/21 04:15:36;;;;;;;6.43;4.70;;;;;;;16.26;70.07;100398.45;154372;1093;103217;-78
2021/07/21 04:18:50;;;;;;;6.73;4.60;;;;;;;16.32;69.68;100394.19;154383;1093;103187;-78
2021/07/21 04:21:57;;;;;;;7.07;4.80;;;;;;;16.33;70.33;100407.47;154403;1093;103145;-77
2021/07/21 04:25:04;;;;;;;7.27;4.97;;;;;;;16.33;70.23;100407.47;154210;1098;103560;-78
2021/07/21 04:28:13;;;;;;;7.93;5.40;;;;;;;16.43;70.21;100412.56;154407;1093;103128;-77
2021/07/21 04:31:30;;;;;;;8.53;5.57;;;;;;;16.47;70.06;100420.09;153977;1093;103532;-78
2021/07/21 04:34:39;;;;;;;8.27;5.07;;;;;;;16.52;69.92;100418.70;154005;1093;103610;-78
2021/07/21 04:37:45;;;;;;;7.30;4.67;;;;;;;16.59;71.08;100411.52;154019;1093;103334;-77
2021/07/21 04:40:53;;;;;;;6.57;4.87;;;;;;;16.64;69.95;100419.88;154022;1101;103211;-78
2021/07/21 04:44:24;;;;;;;6.40;5.13;;;;;;;16.75;70.74;100419.39;153850;1093;103246;-78
2021/07/21 04:47:36;;;;;;;7.53;5.50;;;;;;;16.87;69.75;100420.58;154014;1093;103143;-78
2021/07/21 04:50:45;;;;;;;6.93;6.03;;;;;;;16.94;70.51;100427.93;154016;1093;103142;-78
2021/07/21 04:53:56;;;;;;;7.65;5.05;;;;;;;16.93;70.72;100420.86;154041;1101;103224;-78
2021/07/21 04:57:03;;;;;;;8.10;4.50;;;;;;;17.07;69.99;100430.74;154013;1101;103221;-79
2021/07/21 05:00:16;;;;;;;6.57;5.07;;;;;;;17.31;70.11;100426.02;154008;1093;103121;-78
2021/07/21 05:03:28;;;;;;;6.80;5.03;;;;;;;17.50;69.74;100425.36;154044;1093;103221;-78
2021/07/21 05:06:36;;;;;;;9.43;5.60;;;;;;;17.78;69.25;100427.23;153960;1093;103251;-79
2021/07/21 05:09:42;;;;;;;7.37;5.83;;;;;;;18.05;69.05;100434.54;154013;1101;103217;-79
2021/07/21 05:12:47;;;;;;;8.93;5.63;;;;;;;18.14;68.96;100432.50;153933;1100;103253;-79
2021/07/21 05:15:54;;;;;;;7.50;5.77;;;;;;;18.14;68.41;100431.67;153935;1101;103150;-78
2021/07/21 05:19:00;;;;;;;6.87;5.37;;;;;;;18.24;68.69;100437.55;153994;1093;103133;-77
2021/07/21 05:22:06;;;;;;;9.70;6.60;;;;;;;18.48;68.46;100440.81;153945;1101;103177;-78
2021/07/21 05:25:12;;;;;;;7.60;6.03;;;;;;;18.68;68.39;100438.18;154011;1101;103230;-78
2021/07/21 05:28:35;;;;;;;8.47;6.57;;;;;;;18.70;67.79;100445.05;153986;1093;103305;-77
2021/07/21 05:31:47;;;;;;;8.70;5.83;;;;;;;18.70;68.15;100431.53;153970;1101;103147;-78
2021/07/21 05:35:06;;;;;;;8.60;6.67;;;;;;;18.87;68.10;100433.92;153963;1101;103132;-78
2021/07/21 05:38:29;;;;;;;7.70;5.73;;;;;;;19.03;67.99;100441.64;154029;1094;103209;-78
2021/07/21 05:41:34;;;;;;;8.97;6.23;;;;;;;19.18;67.43;100441.48;154055;1101;103611;-84
2021/07/21 05:44:40;;;;;;;7.10;5.85;;;;;;;19.31;67.39;100441.50;154213;1094;103256;-80
2021/07/21 05:47:46;;;;;;;7.80;5.93;;;;;;;19.45;67.06;100436.11;154122;1093;103224;-78
2021/07/21 05:50:51;;;;;;;7.15;5.95;;;;;;;19.48;66.64;100436.53;153988;1093;103219;-71
2021/07/21 05:53:58;;;;;;;7.10;5.50;;;;;;;19.52;66.56;100443.20;153950;1093;103578;-72
2021/07/21 05:57:03;;;;;;;8.90;6.50;;;;;;;19.58;66.02;100450.48;154045;1101;103142;-72
2021/07/21 06:00:14;;;;;;;6.23;5.10;;;;;;;19.67;66.73;100445.70;153960;1093;103219;-71
2021/07/21 06:03:25;;;;;;;9.70;5.97;;;;;;;19.76;65.77;100455.29;153972;1093;103230;-72
2021/07/21 06:06:49;;;;;;;7.23;5.00;;;;;;;19.82;65.44;100456.33;154102;1093;103220;-72
2021/07/21 06:10:26;;;;;;;7.93;4.93;;;;;;;19.91;65.49;100468.63;153778;1101;103807;-72
2021/07/21 06:13:37;;;;;;;6.63;5.07;;;;;;;19.97;64.96;100473.20;154005;1093;103200;-73
2021/07/21 06:16:42;;;;;;;6.77;4.80;;;;;;;19.91;64.68;100463.20;153959;1094;103214;-72
2021/07/21 06:19:49;;;;;;;6.67;4.70;;;;;;;19.88;63.58;100466.35;153976;1093;103179;-72
2021/07/21 06:22:57;;;;;;;6.83;4.90;;;;;;;19.78;63.91;100474.04;153959;1093;103146;-72
2021/07/21 06:26:07;;;;;;;7.00;4.67;;;;;;;19.69;62.77;100470.70;154027;1101;103143;-73
2021/07/21 06:29:33;;;;;;;8.60;4.90;;;;;;;19.71;64.15;100471.31;153998;1093;103227;-72
2021/07/21 06:32:40;;;;;;;6.50;4.67;;;;;;;19.78;63.17;100477.61;153937;1093;103124;-73
2021/07/21 06:35:45;;;;;;;7.43;4.20;;;;;;;19.82;64.38;100472.58;154006;1101;103231;-72
2021/07/21 06:38:51;;;;;;;7.10;4.00;;;;;;;19.84;63.39;100475.91;153972;1101;103117;-72
2021/07/21 06:42:10;;;;;;;6.30;4.00;;;;;;;19.90;64.37;100475.10;153943;1101;103216;-71
2021/07/21 06:45:21;;;;;;;5.17;4.20;;;;;;;19.96;62.51;100482.38;154029;1101;103240;-72
2021/07/21 06:48:39;;;;;;;5.93;4.63;;;;;;;19.93;62.13;100477.38;153975;1093;103190;-73
2021/07/21 06:51:45;;;;;;;5.50;4.43;;;;;;;19.99;63.08;100483.83;153957;1093;103192;-72
2021/07/21 06:54:54;;;;;;;6.07;4.57;;;;;;;20.09;62.92;100477.98;153984;1093;103123;-73
2021/07/21 06:58:17;;;;;;;6.10;4.35;;;;;;;20.06;61.06;100491.97;153965;1101;103572;-73
2021/07/21 07:01:26;;;;;;;6.75;4.50;;;;;;;20.07;61.75;100493.61;154123;1093;103143;-72
2021/07/21 07:04:50;;;;;;;6.00;4.20;;;;;;;20.07;61.60;100493.61;153979;1101;103147;-72
2021/07/21 07:08:24;;;;;;;6.17;4.70;;;;;;;20.05;61.75;100492.99;153931;1101;103131;-72
2021/07/21 07:11:50;;;;;;;5.90;4.30;;;;;;;20.11;61.17;100493.00;153996;1093;103110;-73
2021/07/21 07:14:55;;;;;;;8.57;5.07;;;;;;;20.23;61.88;100487.77;154004;1093;103183;-73
2021/07/21 07:18:00;;;;;;;7.90;4.60;;;;;;;20.32;60.47;100489.22;154018;1093;103141;-72
2021/07/21 07:21:05;;;;;;;6.83;4.43;;;;;;;20.33;61.73;100487.34;154010;1100;103100;-72
2021/07/21 07:24:10;;;;;;;6.50;4.27;;;;;;;20.44;61.42;100485.83;154243;1093;103190;-72
2021/07/21 07:27:16;;;;;;;8.73;5.07;;;;;;;20.43;60.20;100485.02;154440;1098;103112;-72
2021/07/21 07:30:21;;;;;;;6.77;4.97;;;;;;;20.49;61.48;100477.91;153966;1101;103272;-72
2021/07/21 07:33:26;;;;;;;6.30;4.43;;;;;;;20.63;61.08;100485.00;154052;1093;103132;-72
2021/07/21 07:36:31;;;;;;;6.03;4.60;;;;;;;20.71;61.08;100482.05;153943;1101;103190;-72
2021/07/21 07:39:36;;;;;;;6.15;4.60;;;;;;;20.75;60.84;100472.43;153999;1093;103112;-72
2021/07/21 07:42:41;;;;;;;7.70;4.60;;;;;;;20.84;59.79;100483.85;154010;1101;103128;-72
2021/07/21 07:45:47;;;;;;;5.73;4.60;;;;;;;20.81;59.19;100495.15;154075;1096;103215;-73
2021/07/21 07:48:52;;;;;;;6.73;4.40;;;;;;;20.85;59.17;100487.42;154037;1096;103139;-72
2021/07/21 07:51:57;;;;;;;6.73;4.67;;;;;;;20.84;58.43;100491.98;153940;1101;103200;-72
2021/07/21 07:55:02;;;;;;;6.57;4.47;;;;;;;20.86;58.70;100483.64;153948;1096;103262;-72
2021/07/21 07:58:06;;;;;;;5.67;4.73;;;;;;;;;;154020;1101;103131;-72
2021/07/21 08:01:10;;;;;;;6.90;4.57;;;;;;;21.04;60.08;100483.78;154124;1096;103183;-72
2021/07/21 08:04:15;;;;;;;6.80;4.27;;;;;;;21.17;56.73;100489.13;154025;1093;103195;-73
2021/07/21 08:07:23;;;;;;;6.10;4.20;;;;;;;21.23;57.77;100476.58;153982;1101;103142;-73
2021/07/21 08:10:28;;;;;;;7.17;4.20;;;;;;;21.36;58.78;100478.36;153945;1101;103203;-72
2021/07/21 08:13:33;;;;;;;6.97;4.00;;;;;;;21.40;57.75;100479.58;153948;1093;103122;-73
2021/07/21 08:16:38;;;;;;;7.13;4.40;;;;;;;21.43;55.64;100484.59;154056;1101;103269;-73
2021/07/21 08:19:44;;;;;;;9.25;4.35;;;;;;;21.50;57.39;100474.55;154001;1101;103133;-73
2021/07/21 08:22:49;;;;;;;6.10;4.50;;;;;;;21.50;56.49;100485.41;154001;1093;103133;-73
2021/07/21 08:25:54;;;;;;;6.83;4.37;;;;;;;21.52;55.64;100486.02;154106;1101;103131;-73
2021/07/21 08:28:59;;;;;;;7.97;4.23;;;;;;;21.68;57.61;100483.82;154007;1101;103132;-72
2021/07/21 08:32:05;;;;;;;6.77;4.60;;;;;;;21.91;57.22;100486.75;153956;1093;103352;-72
2021/07/21 08:35:12;;;;;;;5.25;4.00;;;;;;;22.04;57.58;100484.99;154008;1101;103203;-71
2021/07/21 08:38:17;;;;;;;8.05;3.90;;;;;;;22.20;55.64;100489.84;154051;1093;103235;-72
2021/07/21 08:41:23;;;;;;;5.10;4.20;;;;;;;22.13;56.43;100483.63;154014;1094;103496;-72
2021/07/21 08:44:28;;;;;;;7.17;4.23;;;;;;;22.23;54.34;100494.84;154306;1101;103250;-73
2021/07/21 08:47:33;;;;;;;5.47;4.13;;;;;;;22.28;54.93;100486.03;153944;1101;103215;-73
2021/07/21 08:50:38;;;;;;;6.90;4.10;;;;;;;22.31;53.93;100491.03;153981;1101;103132;-72
2021/07/21 08:53:43;;;;;;;7.10;4.50;;;;;;;22.30;54.15;100492.07;153964;1093;103139;-72
2021/07/21 08:56:49;;;;;;;5.47;4.00;;;;;;;22.34;52.38;100493.28;154019;1101;103129;-72
2021/07/21 08:59:56;;;;;;;4.70;3.63;;;;;;;22.32;53.50;100509.81;153992;1101;103230;-73
2021/07/21 09:03:02;;;;;;;4.43;3.97;;;;;;;22.27;51.92;100495.26;154099;1093;103256;-72
2021/07/21 09:06:08;;;;;;;6.47;4.40;;;;;;;22.34;52.37;100496.85;154079;1101;103260;-71
2021/07/21 09:09:13;;;;;;;5.25;4.30;;;;;;;22.34;54.24;100499.57;153940;1093;103141;-72
2021/07/21 09:12:18;;;;;;;5.00;4.30;;;;;;;22.48;52.08;100502.98;153909;1101;103217;-72
2021/07/21 09:15:25;;;;;;;7.20;4.50;;;;;;;22.60;53.46;100499.51;153980;1101;103129;-72
2021/07/21 09:18:31;;;;;;;5.67;4.10;;;;;;;22.76;53.08;100490.72;154000;1101;103339;-73
2021/07/21 09:21:36;;;;;;;7.20;4.50;;;;;;;22.88;50.32;100490.78;153970;1093;103121;-72
2021/07/21 09:24:41;;;;;;;5.43;4.00;;;;;;;23.05;52.44;100494.56;153952;1101;103128;-73
2021/07/21 09:27:49;;;;;;;4.90;4.03;;;;;;;23.15;51.35;100487.74;153963;1093;103123;-73
2021/07/21 09:30:53;;;;;;;8.50;4.50;;;;;;;23.21;50.89;100493.11;153982;1101;103142;-73
2021/07/21 09:33:59;;;;;;;6.60;4.13;;;;;;;23.29;53.19;100483.79;153960;1101;103471;-73
2021/07/21 09:37:07;;;;;;;7.67;3.73;;;;;;;23.41;50.39;100500.98;153967;1101;103124;-72
2021/07/21 09:40:13;;;;;;;5.80;3.97;;;;;;;23.44;51.75;100494.23;153983;1101;103196;-72
2021/07/21 09:43:20;;;;;;;6.23;4.10;;;;;;;23.70;52.39;100484.83;153990;1101;103168;-72
2021/07/21 09:46:26;;;;;;;4.50;3.57;;;;;;;23.85;50.55;100498.05;153977;1101;103099;-72
2021/07/21 09:49:31;;;;;;;5.40;3.53;;;;;;;23.81;50.78;100485.95;153964;1094;103657;-71
2021/07/21 09:52:47;;;;;;;4.87;4.03;;;;;;;23.76;50.65;100500.23;154002;1101;103196;-72
2021/07/21 09:55:59;;;;;;;3.90;3.37;;;;;;;23.66;50.05;100484.47;154005;1101;103127;-72
2021/07/21 09:59:25;;;;;;;5.03;3.70;;;;;;;23.61;48.02;100489.77;153925;1093;103213;-72
2021/07/21 10:02:31;;;;;;;5.57;3.40;;;;;;;23.68;47.71;100487.78;153981;1101;103163;-72
2021/07/21 10:05:49;;;;;;;4.23;3.30;;;;;;;23.68;48.51;100495.95;153936;1101;103214;-73
2021/07/21 10:08:54;;;;;;;5.83;3.70;;;;;;;23.35;48.23;100496.47;154001;1100;103157;-72
2021/07/21 10:11:59;;;;;;;5.45;3.70;;;;;;;23.11;48.95;100493.67;153939;1093;103195;-74
2021/07/21 10:15:05;;;;;;;4.60;3.10;;;;;;;23.12;49.24;100487.15;153926;1101;103147;-73
2021/07/21 10:18:13;;;;;;;4.93;3.47;;;;;;;23.43;49.94;100482.52;153956;1101;103140;-73
2021/07/21 10:21:18;;;;;;;6.53;4.10;;;;;;;23.71;49.55;100483.75;154018;1101;103272;-73
2021/07/21 10:24:26;;;;;;;5.77;3.50;;;;;;;23.86;45.47;100503.23;154035;1101;103573;-72
2021/07/21 10:27:31;;;;;;;6.23;3.97;;;;;;;23.97;48.47;100498.05;154105;1093;103128;-72
2021/07/21 10:30:38;;;;;;;4.47;3.50;;;;;;;24.15;47.72;100491.64;153912;1101;103224;-72
2021/07/21 10:33:44;;;;;;;4.33;3.43;;;;;;;24.27;48.14;100498.77;153972;1101;103473;-72
2021/07/21 10:36:49;;;;;;;4.37;3.53;;;;;;;24.42;47.49;100491.98;153943;1094;103260;-71
2021/07/21 10:39:58;;;;;;;3.53;3.20;;;;;;;24.49;48.77;100479.05;154036;1101;103121;-72
2021/07/21 10:43:04;;;;;;;5.35;3.90;;;;;;;24.61;46.00;100488.06;154055;1093;103215;-72
2021/07/21 10:46:32;;;;;;;4.00;3.60;;;;;;;24.60;46.66;100491.06;153968;1101;103124;-72
2021/07/21 10:49:41;;;;;;;3.83;3.03;;;;;;;24.61;47.70;100479.88;153988;1101;103202;-71
2021/07/21 10:52:55;;;;;;;4.50;3.60;;;;;;;24.65;45.33;100488.42;153979;1093;103187;-71
2021/07/21 11:00:02;;;;;;;4.40;3.60;;;;;;;23.85;46.55;100495.32;154006;1101;103205;-71
2021/07/21 11:03:19;;;;;;;;;;;;;;;23.70;44.64;100493.83;154079;1101;103144;-71
2021/07/21 11:06:38;;;;;;;5.40;3.80;;;;;;;23.24;43.05;100508.15;153979;1101;103490;-71
2021/07/21 11:09:49;;;;;;;4.20;3.60;;;;;;;23.04;46.04;100503.80;153985;1101;103192;-71
2021/07/21 11:12:55;;;;;;;5.23;3.57;;;;;;;23.01;46.27;100496.05;154027;1101;103131;-71
2021/07/21 11:16:02;;;;;;;4.37;3.13;;;;;;;23.16;47.25;100492.14;153975;1093;103129;-72
2021/07/21 11:19:35;;;;;;;4.43;3.30;;;;;;;23.28;45.91;100496.55;153923;1101;103182;-73
2021/07/21 11:22:40;;;;;;;3.90;3.05;;;;;;;23.19;45.81;100497.96;154011;1101;103176;-72
2021/07/21 11:25:45;;;;;;;4.80;3.37;;;;;;;23.32;46.21;100497.75;153948;1101;103269;-72
2021/07/21 11:28:50;;;;;;;4.80;3.20;;;;;;;23.71;46.85;100492.78;153973;1093;103115;-73
2021/07/21 11:32:02;;;;;;;5.87;3.30;;;;;;;24.09;47.03;100491.52;154007;1101;103154;-73
2021/07/21 11:35:42;;;;;;;6.47;3.13;;;;;;;24.45;47.31;100475.15;154024;1101;104885;-73
2021/07/21 11:38:54;;;;;;;4.17;2.90;;;;;;;24.72;43.11;100482.84;153977;1101;103246;-73
2021/07/21 11:42:00;;;;;;;4.43;2.73;;;;;;;24.77;39.95;100491.11;153948;1101;103267;-73
2021/07/21 11:45:15;;;;;;;3.70;2.85;;;;;;;25.04;42.70;100496.88;154087;1093;103196;-72
2021/07/21 11:48:20;;;;;;;4.40;2.90;;;;;;;25.14;40.08;100497.05;154047;1093;103135;-72
2021/07/21 11:51:25;;;;;;;5.60;2.90;;;;;;;25.11;39.96;100493.98;153936;1101;103203;-72
2021/07/21 11:54:34;;;;;;;4.90;3.00;;;;;;;25.08;40.64;100493.39;154011;1093;103201;-73
2021/07/21 11:57:39;;;;;;;4.90;2.90;;;;;;;25.09;41.81;100488.75;153986;1101;103197;-73
2021/07/21 12:00:50;;;;;;;3.97;2.53;;;;;;;24.88;39.29;100487.52;154012;1101;103221;-73
2021/07/21 12:03:55;;;;;;;3.60;2.67;;;;;;;24.75;42.14;100476.88;153984;1093;103222;-72
2021/07/21 12:07:00;;;;;;;4.60;2.87;;;;;;;24.61;41.37;100487.24;153957;1101;103547;-72
2021/07/21 12:10:13;;;;;;;3.83;2.90;;;;;;;24.55;39.71;100494.48;154105;1096;103148;-75
2021/07/21 12:13:20;;;;;;;3.33;2.90;;;;;;;24.55;40.28;100489.03;153984;1101;103366;-73
2021/07/21 12:16:25;;;;;;;3.80;2.93;;;;;;;24.36;38.95;100501.95;154076;1101;103116;-73
2021/07/21 12:19:31;;;;;;;3.10;2.73;;;;;;;24.24;40.15;100488.33;153931;1101;103274;-72
2021/07/21 12:22:37;;;;;;;3.53;2.73;;;;;;;24.25;41.20;100484.55;153941;1101;103215;-73
2021/07/21 12:25:43;;;;;;;5.13;2.53;;;;;;;24.37;41.57;100491.89;154068;1101;103190;-73
2021/07/21 12:28:57;;;;;;;3.77;2.90;;;;;;;24.49;41.30;100487.23;153946;1096;103278;-73
2021/07/21 12:32:11;;;;;;;5.70;2.80;;;;;;;24.59;41.11;100490.20;154006;1096;103193;-72
2021/07/21 12:35:20;;;;;;;3.70;2.50;;;;;;;24.46;39.76;100484.97;153995;1094;103194;-73
2021/07/21 12:38:25;;;;;;;3.13;2.63;;;;;;;24.33;41.32;100490.68;153989;1096;103144;-73
2021/07/21 12:41:30;;;;;;;3.33;2.73;;;;;;;24.05;41.26;100494.97;153969;1101;103120;-73
2021/07/21 12:44:39;;;;;;;4.05;2.85;;;;;;;23.83;41.44;100502.91;153966;1101;103262;-72
2021/07/21 12:47:47;;;;;;;3.67;2.80;;;;;;;23.81;42.75;100500.41;154089;1101;103142;-73
2021/07/21 12:50:53;;;;;;;3.90;2.95;;;;;;;23.88;42.54;100498.41;153994;1101;103496;-72
2021/07/21 12:53:58;;;;;;;5.50;2.73;;;;;;;24.01;42.77;100500.05;154071;1101;103206;-71
2021/07/21 12:57:03;;;;;;;4.10;2.80;;;;;;;24.28;42.79;100500.41;154089;1101;103218;-72
2021/07/21 13:00:21;;;;;;;3.67;2.70;;;;;;;24.42;41.62;100492.84;154080;1101;103189;-71
2021/07/21 13:03:27;;;;;;;3.57;2.83;;;;;;;24.42;41.68;100490.11;154034;1096;103202;-71
2021/07/21 13:06:32;;;;;;;3.13;2.83;;;;;;;24.40;42.07;100505.85;153993;1095;103128;-73
2021/07/21 13:09:37;;;;;;;3.25;2.80;;;;;;;24.43;42.88;100499.93;153907;1101;103516;-72
2021/07/21 13:12:42;;;;;;;3.57;2.70;;;;;;;24.46;42.34;100504.92;154005;1094;103147;-72
2021/07/21 13:15:56;;;;;;;3.20;2.50;;;;;;;24.39;42.12;100504.20;153988;1101;103208;-73
2021/07/21 13:19:08;;;;;;;3.47;2.80;;;;;;;24.34;42.45;100504.08;154018;1101;103211;-73
2021/07/21 13:22:23;;;;;;;3.20;2.90;;;;;;;24.14;42.10;100507.19;153941;1096;103272;-73
2021/07/21 13:25:31;;;;;;;5.83;3.00;;;;;;;23.89;42.57;100519.13;153980;1096;103198;-72
2021/07/21 13:28:42;;;;;;;4.80;3.20;;;;;;;23.71;42.81;100521.89;153999;1096;103125;-72
2021/07/21 13:31:48;;;;;;;3.63;3.17;;;;;;;23.49;43.78;100519.71;153941;1101;103355;-72
2021/07/21 13:35:07;;;;;;;5.73;3.50;;;;;;;23.38;43.73;100525.94;154050;1101;103195;-73
2021/07/21 13:38:14;;;;;;;4.20;3.57;;;;;;;23.31;44.42;100522.51;154018;1096;103133;-73
2021/07/21 13:41:28;;;;;;;4.40;3.27;;;;;;;23.31;44.50;100525.23;154009;1101;103151;-73
2021/07/21 13:44:34;;;;;;;5.23;3.60;;;;;;;23.35;44.71;100520.16;154087;1101;103195;-73
2021/07/21 13:47:40;;;;;;;4.53;3.80;;;;;;;23.44;45.00;100524.19;153979;1093;103225;-73
2021/07/21 13:50:45;;;;;;;4.10;3.43;;;;;;;23.57;45.21;100539.52;154171;1101;103557;-73
2021/07/21 13:53:50;;;;;;;6.80;3.80;;;;;;;23.46;44.37;100532.95;154033;1101;103563;-72
2021/07/21 13:56:57;;;;;;;5.20;3.40;;;;;;;23.44;44.91;100527.77;154016;1101;103598;-73
2021/07/21 14:00:02;;;;;;;4.40;3.50;;;;;;;23.53;44.45;100537.25;154084;1101;103097;-72
2021/07/21 14:03:23;;;;;;;5.30;3.60;;;;;;;23.55;44.71;100530.75;153979;1101;103258;-72
2021/07/21 14:06:28;;;;;;;5.13;3.50;;;;;;;23.60;44.90;100528.17;154400;1093;103278;-72
2021/07/21 14:09:33;;;;;;;5.20;3.60;;;;;;;23.77;45.20;100518.26;154619;1101;103219;-75
2021/07/21 14:12:39;;;;;;;5.30;3.50;;;;;;;23.87;44.66;100521.26;154069;1101;103180;-75
2021/07/21 14:15:44;;;;;;;6.10;3.67;;;;;;;23.92;44.79;100520.55;154093;1101;103144;-75
2021/07/21 14:18:49;;;;;;;5.20;3.60;;;;;;;23.80;45.05;100525.98;154010;1101;103295;-73
2021/07/21 14:21:56;;;;;;;3.95;3.55;;;;;;;23.73;45.37;100517.07;154169;1093;103122;-76
2021/07/21 14:25:01;;;;;;;5.07;3.37;;;;;;;23.63;45.06;100525.78;153952;1101;103128;-74
2021/07/21 14:28:07;;;;;;;4.93;3.57;;;;;;;23.55;45.76;100523.40;154133;1093;103480;-75
2021/07/21 14:31:13;;;;;;;5.27;3.43;;;;;;;23.45;45.34;100523.96;154061;1093;103220;-78